Time;durP1;ratioP1;P1;durP2;ratioP2;P2;SDS_P1;SDS_P2;PMS_P1;PMS_P2;Temp;Humidity;BMP_temperature;BMP_pressure;BME280_temperature;BME280_humidity;BME280_pressure;Samples;Min_cycle;Max_cycle;Signal;HPM_P1;HPM_P2
2023/12/20 00:01:05;;;;;;;11.30;2.10;;;6.20;99.90;;;;;;5056614;28;20049;-84
2023/12/20 00:03:30;;;;;;;13.25;1.95;;;6.30;99.90;;;;;;5055182;28;20044;-83
2023/12/20 00:05:56;;;;;;;13.73;2.03;;;6.20;99.90;;;;;;5051593;28;20051;-84
2023/12/20 00:08:22;;;;;;;11.68;1.90;;;6.40;99.90;;;;;;5053770;28;20096;-84
2023/12/20 00:10:47;;;;;;;10.13;1.48;;;6.20;99.90;;;;;;5052580;28;20150;-83
2023/12/20 00:13:13;;;;;;;9.40;1.80;;;6.30;99.90;;;;;;5051292;28;20052;-84
2023/12/20 00:15:39;;;;;;;17.33;2.38;;;6.20;99.90;;;;;;5061663;28;20407;-80
2023/12/20 00:18:05;;;;;;;9.05;2.28;;;6.10;99.90;;;;;;5048093;28;20060;-84
2023/12/20 00:20:30;;;;;;;11.07;1.40;;;6.10;99.90;;;;;;5061906;28;20141;-84
2023/12/20 00:23:00;;;;;;;9.77;1.50;;;6.20;99.90;;;;;;5052133;28;20472;-84
2023/12/20 00:25:26;;;;;;;17.40;2.50;;;6.10;99.90;;;;;;5053798;28;20056;-84
2023/12/20 00:27:52;;;;;;;13.45;1.90;;;6.00;99.90;;;;;;5053998;28;20412;-84
2023/12/20 00:30:18;;;;;;;9.20;1.63;;;6.00;99.90;;;;;;5057523;28;20178;-85
2023/12/20 00:32:46;;;;;;;11.15;1.77;;;6.00;99.90;;;;;;5056233;28;20051;-83
2023/12/20 00:35:15;;;;;;;9.65;1.83;;;6.00;99.90;;;;;;5056281;28;20076;-84
2023/12/20 00:37:44;;;;;;;13.60;1.70;;;6.00;99.90;;;;;;5051566;28;20059;-84
2023/12/20 00:40:10;;;;;;;14.45;2.03;;;6.00;99.90;;;;;;5057100;28;20129;-84
2023/12/20 00:42:36;;;;;;;13.57;1.85;;;6.00;99.90;;;;;;5057408;28;20689;-84
2023/12/20 00:45:04;;;;;;;17.75;2.17;;;6.00;99.90;;;;;;5055496;28;20056;-84
2023/12/20 00:47:30;;;;;;;14.20;2.17;;;6.00;99.90;;;;;;5061023;28;20185;-84
2023/12/20 00:49:56;;;;;;;15.15;1.90;;;6.00;99.90;;;;;;5057388;28;20187;-84
2023/12/20 00:52:22;;;;;;;14.13;1.73;;;6.30;99.90;;;;;;5063609;28;20049;-84
2023/12/20 00:54:48;;;;;;;12.45;1.92;;;6.00;99.90;;;;;;5055091;28;20080;-83
2023/12/20 00:57:14;;;;;;;14.90;2.42;;;6.40;99.90;;;;;;5057796;28;20126;-84
2023/12/20 00:59:39;;;;;;;12.93;1.90;;;6.00;99.90;;;;;;5057227;28;20049;-84
2023/12/20 01:02:05;;;;;;;16.55;1.77;;;6.00;99.90;;;;;;5057640;28;20550;-84
2023/12/20 01:04:31;;;;;;;10.10;1.83;;;6.00;99.90;;;;;;5064195;28;20059;-85
2023/12/20 01:06:56;;;;;;;17.15;2.20;;;6.00;99.90;;;;;;5071306;28;20127;-84
2023/12/20 01:09:26;;;;;;;10.10;1.98;;;6.00;99.90;;;;;;5055907;28;20055;-84
2023/12/20 01:11:52;;;;;;;19.25;2.63;;;6.00;99.90;;;;;;5062586;28;20416;-85
2023/12/20 01:14:18;;;;;;;13.15;2.08;;;6.00;99.90;;;;;;5061803;28;20048;-86
2023/12/20 01:16:44;;;;;;;11.98;2.22;;;5.90;99.90;;;;;;5037354;28;20044;-84
2023/12/20 01:19:10;;;;;;;17.45;2.60;;;6.00;99.90;;;;;;5056517;28;20396;-84
2023/12/20 01:21:35;;;;;;;13.65;2.20;;;5.90;99.90;;;;;;5066604;28;20102;-85
2023/12/20 01:24:01;;;;;;;12.07;2.30;;;6.00;99.90;;;;;;5064128;28;20094;-83
2023/12/20 01:26:27;;;;;;;11.35;1.80;;;6.00;99.90;;;;;;5071206;28;20094;-85
2023/12/20 01:28:53;;;;;;;11.45;1.75;;;6.00;99.90;;;;;;5061605;28;20029;-85
2023/12/20 01:31:18;;;;;;;10.23;1.65;;;6.00;99.90;;;;;;5051774;28;20459;-85
2023/12/20 01:33:44;;;;;;;10.07;1.73;;;6.00;99.90;;;;;;5065487;28;20079;-84
2023/12/20 01:36:11;;;;;;;12.10;2.47;;;6.00;99.90;;;;;;5067903;28;20087;-84
2023/12/20 01:38:36;;;;;;;13.15;2.95;;;6.20;99.90;;;;;;5053549;28;20482;-85
2023/12/20 01:41:02;;;;;;;10.57;1.98;;;5.90;99.90;;;;;;5050552;28;20084;-84
2023/12/20 01:43:29;;;;;;;19.92;2.42;;;6.00;99.90;;;;;;5063106;28;20045;-85
2023/12/20 01:45:57;;;;;;;11.73;1.98;;;5.90;99.90;;;;;;5070428;28;20068;-84
2023/12/20 01:48:24;;;;;;;19.73;2.38;;;5.90;99.90;;;;;;5055795;28;20040;-85
2023/12/20 01:50:50;;;;;;;19.95;3.17;;;5.90;99.90;;;;;;5065365;28;20082;-84
2023/12/20 01:53:19;;;;;;;9.52;2.33;;;5.90;99.90;;;;;;5067560;28;20068;-84
2023/12/20 01:55:44;;;;;;;12.20;2.35;;;5.90;99.90;;;;;;5058508;28;20044;-85
2023/12/20 01:58:11;;;;;;;16.83;1.70;;;6.00;99.90;;;;;;5055431;28;20063;-85
2023/12/20 02:00:37;;;;;;;10.93;1.40;;;6.00;99.90;;;;;;5061006;28;20045;-87
2023/12/20 02:03:04;;;;;;;13.15;2.25;;;6.00;99.90;;;;;;5055634;28;20063;-84
2023/12/20 02:05:31;;;;;;;12.50;2.10;;;6.00;99.90;;;;;;5041247;28;20538;-86
2023/12/20 02:07:57;;;;;;;19.77;2.25;;;6.00;99.90;;;;;;5057152;28;20056;-87
2023/12/20 02:10:24;;;;;;;12.75;2.05;;;6.10;99.90;;;;;;5065596;28;20144;-86
2023/12/20 02:12:50;;;;;;;16.95;2.78;;;6.00;99.90;;;;;;5055730;28;20508;-84
2023/12/20 02:15:15;;;;;;;14.77;2.80;;;6.00;99.90;;;;;;5058265;28;20127;-84
2023/12/20 02:17:41;;;;;;;11.80;2.35;;;6.00;99.90;;;;;;5057071;28;20476;-86
2023/12/20 02:20:07;;;;;;;20.45;3.50;;;6.00;99.90;;;;;;5070603;28;20052;-86
2023/12/20 02:22:33;;;;;;;16.00;2.85;;;6.00;99.90;;;;;;5067663;28;20041;-86
2023/12/20 02:24:58;;;;;;;22.17;3.53;;;6.00;99.90;;;;;;5056953;28;20102;-85
2023/12/20 02:27:24;;;;;;;20.48;3.90;;;6.40;99.90;;;;;;5057369;28;20291;-85
2023/12/20 02:29:51;;;;;;;16.48;2.67;;;6.00;99.90;;;;;;5059866;28;20052;-86
2023/12/20 02:32:18;;;;;;;17.35;3.25;;;6.10;99.90;;;;;;5054056;28;20123;-86
2023/12/20 02:34:43;;;;;;;15.45;2.90;;;6.00;99.90;;;;;;5064924;28;20040;-86
2023/12/20 02:37:10;;;;;;;20.85;3.25;;;6.00;99.90;;;;;;5062586;28;20523;-85
2023/12/20 02:39:36;;;;;;;22.23;3.17;;;6.00;99.90;;;;;;5070836;28;20172;-86
2023/12/20 02:42:01;;;;;;;18.10;2.58;;;6.00;99.90;;;;;;5057303;28;20506;-86
2023/12/20 02:44:27;;;;;;;18.20;3.28;;;5.90;99.90;;;;;;5056426;28;20459;-84
2023/12/20 02:46:53;;;;;;;13.25;2.80;;;5.90;99.90;;;;;;5057991;28;20036;-87
2023/12/20 02:49:18;;;;;;;18.45;2.65;;;5.90;99.90;;;;;;5059335;28;20052;-85
2023/12/20 02:51:44;;;;;;;13.55;2.50;;;5.90;99.90;;;;;;5046142;28;20357;-86
2023/12/20 02:54:10;;;;;;;15.90;3.97;;;5.90;99.90;;;;;;5050654;28;20129;-86
2023/12/20 02:56:35;;;;;;;21.27;3.33;;;5.80;99.90;;;;;;5054112;28;20053;-86
2023/12/20 02:59:01;;;;;;;18.02;2.90;;;5.80;99.90;;;;;;5063658;28;20045;-85
2023/12/20 03:01:29;;;;;;;21.70;3.60;;;5.80;99.90;;;;;;5057247;28;20041;-86
2023/12/20 03:03:54;;;;;;;18.00;3.33;;;5.80;99.90;;;;;;5054622;28;20040;-87
2023/12/20 03:06:20;;;;;;;25.83;4.10;;;6.20;99.90;;;;;;5070871;28;20569;-84
2023/12/20 03:08:46;;;;;;;18.75;3.42;;;5.90;99.90;;;;;;5059299;28;20098;-84
2023/12/20 03:11:12;;;;;;;18.38;3.38;;;6.20;99.90;;;;;;5049014;28;20045;-86
2023/12/20 03:13:37;;;;;;;21.10;3.63;;;5.90;99.90;;;;;;5059920;28;20137;-85
2023/12/20 03:16:10;;;;;;;19.20;2.70;;;5.90;99.90;;;;;;5061464;28;20080;-86
2023/12/20 03:18:35;;;;;;;23.48;4.60;;;5.90;99.90;;;;;;5049766;28;20064;-86
2023/12/20 03:21:01;;;;;;;14.05;2.47;;;6.00;99.90;;;;;;5056508;28;20059;-85
2023/12/20 03:23:27;;;;;;;22.48;4.25;;;5.90;99.90;;;;;;5063268;28;20040;-86
2023/12/20 03:25:52;;;;;;;24.17;3.85;;;6.00;99.90;;;;;;5070643;28;20561;-84
2023/12/20 03:28:19;;;;;;;28.48;4.72;;;6.10;99.90;;;;;;5056784;28;20278;-86
2023/12/20 03:30:44;;;;;;;30.20;3.88;;;6.00;99.90;;;;;;5066176;28;20630;-84
2023/12/20 03:33:10;;;;;;;23.98;3.53;;;6.00;99.90;;;;;;5062719;28;20044;-84
2023/12/20 03:35:36;;;;;;;23.33;4.15;;;6.00;99.90;;;;;;5061469;28;20476;-86
2023/12/20 03:38:02;;;;;;;28.20;3.67;;;6.10;99.90;;;;;;5049850;28;20053;-85
2023/12/20 03:40:28;;;;;;;25.75;3.58;;;6.10;99.90;;;;;;5066443;28;20385;-84
2023/12/20 03:42:53;;;;;;;28.92;3.85;;;6.10;99.90;;;;;;5070597;28;20484;-84
2023/12/20 03:45:19;;;;;;;17.20;3.13;;;6.10;99.90;;;;;;5060035;28;20052;-84
2023/12/20 03:47:45;;;;;;;21.85;2.72;;;6.20;99.90;;;;;;5059866;28;20045;-85
2023/12/20 03:50:10;;;;;;;25.90;4.05;;;6.10;99.90;;;;;;5056848;28;20037;-83
2023/12/20 03:52:36;;;;;;;17.70;3.40;;;6.10;99.90;;;;;;5053211;28;20414;-86
2023/12/20 03:55:02;;;;;;;22.27;3.72;;;6.10;99.90;;;;;;5058769;28;20106;-85
2023/12/20 03:57:28;;;;;;;27.63;4.60;;;6.10;99.90;;;;;;5058722;28;20051;-87
2023/12/20 03:59:53;;;;;;;25.83;5.10;;;6.10;99.90;;;;;;5063492;28;20044;-85
2023/12/20 04:02:19;;;;;;;18.05;3.50;;;6.10;99.90;;;;;;5055044;28;20468;-85
2023/12/20 04:04:45;;;;;;;25.08;4.28;;;6.10;99.90;;;;;;5055430;28;20045;-85
2023/12/20 04:07:10;;;;;;;28.98;4.15;;;6.20;99.90;;;;;;5055988;28;20395;-82
2023/12/20 04:09:36;;;;;;;20.15;3.78;;;6.20;99.90;;;;;;5058338;28;20048;-85
2023/12/20 04:12:02;;;;;;;27.02;4.13;;;6.20;99.90;;;;;;5055765;28;20040;-86
2023/12/20 04:14:27;;;;;;;18.85;3.92;;;6.20;99.90;;;;;;5052975;28;20044;-86
2023/12/20 04:16:54;;;;;;;27.85;3.85;;;6.30;99.90;;;;;;5066067;28;20044;-85
2023/12/20 04:19:19;;;;;;;24.20;3.78;;;6.30;99.90;;;;;;5065332;28;20074;-85
2023/12/20 04:21:45;;;;;;;23.58;4.38;;;6.60;99.90;;;;;;5067291;28;20563;-86
2023/12/20 04:24:10;;;;;;;18.38;3.22;;;6.30;99.90;;;;;;5057007;28;20088;-85
2023/12/20 04:26:36;;;;;;;26.75;4.35;;;6.30;99.90;;;;;;5050516;28;20037;-86
2023/12/20 04:29:02;;;;;;;16.52;3.40;;;6.30;99.90;;;;;;5065917;28;20051;-86
2023/12/20 04:31:27;;;;;;;26.35;3.85;;;6.30;99.90;;;;;;5055691;28;20405;-85
2023/12/20 04:33:53;;;;;;;15.50;2.90;;;6.40;99.90;;;;;;5064563;28;20052;-87
2023/12/20 04:36:19;;;;;;;16.75;3.05;;;6.40;99.90;;;;;;5055918;28;20408;-85
2023/12/20 04:38:44;;;;;;;21.42;3.80;;;6.40;99.90;;;;;;5051368;28;20045;-86
2023/12/20 04:41:10;;;;;;;24.65;3.53;;;6.40;99.90;;;;;;5066699;28;20044;-85
2023/12/20 04:43:36;;;;;;;20.20;3.58;;;6.40;99.90;;;;;;5052982;28;20053;-84
2023/12/20 04:46:01;;;;;;;23.90;3.88;;;6.70;99.90;;;;;;5054983;28;20055;-86
2023/12/20 04:48:27;;;;;;;23.50;3.58;;;6.40;99.90;;;;;;5062883;28;20476;-86
2023/12/20 04:50:53;;;;;;;20.25;3.10;;;6.40;99.90;;;;;;5055926;28;20079;-86
2023/12/20 04:53:19;;;;;;;24.92;3.28;;;6.40;99.90;;;;;;5064525;28;20413;-85
2023/12/20 04:55:44;;;;;;;18.73;3.28;;;6.40;99.90;;;;;;5064556;28;20111;-87
2023/12/20 04:58:10;;;;;;;23.95;3.67;;;6.40;99.90;;;;;;5063555;28;20547;-84
2023/12/20 05:00:35;;;;;;;25.20;3.65;;;6.40;99.90;;;;;;5058778;28;20047;-86
2023/12/20 05:03:01;;;;;;;21.27;3.78;;;6.40;99.90;;;;;;5061842;28;20045;-86
2023/12/20 05:05:27;;;;;;;28.52;3.72;;;6.60;99.90;;;;;;5069706;28;20039;-89
2023/12/20 05:07:52;;;;;;;19.92;3.05;;;6.50;99.90;;;;;;5070798;28;20492;-87
2023/12/20 05:10:18;;;;;;;20.38;3.80;;;7.70;99.90;;;;;;5070693;28;20052;-87
2023/12/20 05:12:44;;;;;;;26.58;4.05;;;6.50;99.90;;;;;;5061548;28;20079;-88
2023/12/20 05:15:09;;;;;;;25.77;3.97;;;6.50;99.90;;;;;;5053459;28;20072;-86
2023/12/20 05:17:35;;;;;;;25.40;4.05;;;6.80;99.90;;;;;;5065147;28;20060;-86
2023/12/20 05:20:01;;;;;;;22.90;3.97;;;6.50;99.90;;;;;;5067541;28;20052;-84
2023/12/20 05:22:27;;;;;;;16.83;3.38;;;6.60;99.90;;;;;;5064261;28;20051;-86
2023/12/20 05:24:53;;;;;;;32.63;4.22;;;6.60;99.90;;;;;;5066418;28;20499;-87
2023/12/20 05:27:19;;;;;;;19.83;3.00;;;6.60;99.90;;;;;;5066375;28;20045;-82
2023/12/20 05:29:44;;;;;;;25.70;3.65;;;6.60;99.90;;;;;;5051659;28;20473;-87
2023/12/20 05:32:10;;;;;;;21.70;3.78;;;6.90;99.90;;;;;;5053470;28;20105;-87
2023/12/20 05:34:36;;;;;;;22.08;5.68;;;6.60;99.90;;;;;;5054479;28;20056;-85
2023/12/20 05:37:02;;;;;;;13.98;3.53;;;6.60;99.90;;;;;;5059777;28;20369;-85
2023/12/20 05:39:28;;;;;;;27.70;4.22;;;6.70;99.90;;;;;;5067688;28;20486;-86
2023/12/20 05:41:53;;;;;;;27.38;3.63;;;6.90;99.90;;;;;;5067960;28;20056;-87
2023/12/20 05:44:19;;;;;;;25.80;3.85;;;6.70;99.90;;;;;;5059306;28;20124;-84
2023/12/20 05:46:44;;;;;;;20.42;2.97;;;6.70;99.90;;;;;;5056998;28;20081;-86
2023/12/20 05:49:10;;;;;;;19.60;3.13;;;6.70;99.90;;;;;;5057498;28;20111;-85
2023/12/20 05:51:36;;;;;;;22.00;4.00;;;6.70;99.90;;;;;;5061260;28;20536;-84
2023/12/20 05:54:02;;;;;;;21.52;3.05;;;7.50;99.90;;;;;;5065843;28;20041;-87
2023/12/20 05:56:27;;;;;;;23.33;4.95;;;6.70;99.90;;;;;;5070482;28;20524;-87
2023/12/20 05:58:53;;;;;;;19.70;4.28;;;6.70;99.90;;;;;;5066696;28;20056;-87
2023/12/20 06:01:19;;;;;;;17.20;3.40;;;6.80;99.90;;;;;;5053839;28;20045;-83
2023/12/20 06:03:45;;;;;;;30.50;5.20;;;6.70;99.90;;;;;;5054817;28;20120;-85
2023/12/20 06:06:12;;;;;;;22.13;4.18;;;6.70;99.90;;;;;;5043172;28;20044;-88
2023/12/20 06:08:38;;;;;;;24.02;4.10;;;6.80;99.90;;;;;;5066490;28;20496;-87
2023/12/20 06:11:05;;;;;;;21.70;3.60;;;6.80;99.90;;;;;;5054453;28;20132;-87
2023/12/20 06:13:31;;;;;;;19.23;3.47;;;7.00;99.90;;;;;;5052961;28;20227;-83
2023/12/20 06:15:57;;;;;;;19.67;3.08;;;6.80;99.90;;;;;;5063243;28;20155;-87
2023/12/20 06:18:23;;;;;;;21.80;4.05;;;6.80;99.90;;;;;;5064940;28;20050;-85
2023/12/20 06:20:49;;;;;;;20.83;3.97;;;6.90;99.90;;;;;;5045009;28;20119;-87
2023/12/20 06:23:14;;;;;;;23.65;4.15;;;6.80;99.90;;;;;;5067189;28;20036;-85
2023/12/20 06:25:40;;;;;;;19.77;3.40;;;6.90;99.90;;;;;;5063502;28;20516;-86
2023/12/20 06:28:06;;;;;;;27.60;3.70;;;6.90;99.90;;;;;;5072156;28;20127;-86
2023/12/20 06:30:33;;;;;;;22.98;3.50;;;6.90;99.90;;;;;;5068930;28;20166;-85
2023/12/20 06:32:58;;;;;;;17.98;4.05;;;6.90;99.90;;;;;;5065467;28;20477;-85
2023/12/20 06:35:24;;;;;;;21.33;4.25;;;7.30;99.90;;;;;;5062959;28;20041;-86
2023/12/20 06:37:50;;;;;;;29.10;3.95;;;7.00;99.90;;;;;;5068074;28;20047;-85
2023/12/20 06:40:16;;;;;;;16.85;3.35;;;7.00;99.90;;;;;;5065840;28;20041;-85
2023/12/20 06:42:42;;;;;;;17.90;3.22;;;7.00;99.90;;;;;;5067659;28;20098;-84
2023/12/20 06:45:08;;;;;;;26.75;3.63;;;7.00;99.90;;;;;;5064724;28;20033;-83
2023/12/20 06:47:33;;;;;;;23.45;4.50;;;7.00;99.90;;;;;;5057363;28;20051;-86
2023/12/20 06:49:59;;;;;;;22.38;3.40;;;7.00;99.90;;;;;;5070706;28;20124;-84
2023/12/20 06:52:25;;;;;;;25.52;4.05;;;7.00;99.90;;;;;;5061421;28;20055;-87
2023/12/20 06:54:51;;;;;;;20.92;3.90;;;7.00;99.90;;;;;;5060810;28;20536;-84
2023/12/20 06:57:16;;;;;;;23.10;3.83;;;7.30;99.90;;;;;;5073262;28;20041;-86
2023/12/20 06:59:42;;;;;;;26.60;3.80;;;7.40;99.90;;;;;;5063303;28;20047;-89
2023/12/20 07:02:09;;;;;;;21.50;3.92;;;7.10;99.90;;;;;;5063534;28;20044;-83
2023/12/20 07:04:38;;;;;;;22.17;3.75;;;7.10;99.90;;;;;;5075688;28;20048;-85
2023/12/20 07:07:04;;;;;;;20.88;3.33;;;7.00;99.90;;;;;;5063229;28;20033;-84
2023/12/20 07:09:30;;;;;;;27.92;4.78;;;7.10;99.90;;;;;;5065798;28;20045;-83
2023/12/20 07:11:55;;;;;;;17.42;3.60;;;7.70;99.90;;;;;;5060293;28;20049;-84
2023/12/20 07:14:21;;;;;;;31.98;4.10;;;7.10;99.90;;;;;;5059781;28;20072;-84
2023/12/20 07:16:47;;;;;;;21.33;3.30;;;7.10;99.90;;;;;;5064601;28;20486;-84
2023/12/20 07:19:13;;;;;;;31.33;4.57;;;7.10;99.90;;;;;;5076971;28;20071;-84
2023/12/20 07:21:38;;;;;;;21.33;3.80;;;7.10;99.90;;;;;;5069335;28;20098;-84
2023/12/20 07:24:04;;;;;;;20.10;3.47;;;7.50;99.90;;;;;;5054302;28;20388;-83
2023/12/20 07:26:30;;;;;;;17.80;2.97;;;7.10;99.90;;;;;;5060201;28;20048;-83
2023/12/20 07:28:55;;;;;;;22.40;4.28;;;7.10;99.90;;;;;;5059898;28;20106;-82
2023/12/20 07:31:21;;;;;;;21.58;3.92;;;7.10;99.90;;;;;;5055753;28;20075;-83
2023/12/20 07:33:47;;;;;;;26.35;3.78;;;7.30;99.90;;;;;;5067894;28;20040;-83
2023/12/20 07:36:13;;;;;;;21.00;4.72;;;7.10;99.90;;;;;;5067371;28;20391;-82
2023/12/20 07:38:38;;;;;;;26.27;3.70;;;7.20;99.90;;;;;;5055408;28;20060;-82
2023/12/20 07:41:05;;;;;;;24.52;3.80;;;7.20;99.90;;;;;;5066100;28;20050;-83
2023/12/20 07:43:30;;;;;;;26.05;5.47;;;7.30;99.90;;;;;;5062222;28;20416;-84
2023/12/20 07:45:56;;;;;;;22.40;4.70;;;7.20;99.90;;;;;;5067490;28;20044;-82
2023/12/20 07:48:21;;;;;;;19.90;4.18;;;7.20;99.90;;;;;;5071464;28;20052;-82
2023/12/20 07:50:47;;;;;;;21.98;4.43;;;7.30;99.90;;;;;;5071941;28;20140;-84
2023/12/20 07:53:13;;;;;;;20.90;5.43;;;7.30;99.90;;;;;;5071681;28;20052;-82
2023/12/20 07:55:39;;;;;;;23.85;3.58;;;7.70;99.90;;;;;;5071534;28;20044;-81
2023/12/20 07:58:05;;;;;;;20.75;3.60;;;7.30;99.90;;;;;;5073128;28;20044;-83
2023/12/20 08:00:31;;;;;;;24.92;4.32;;;7.40;99.90;;;;;;5074390;28;20036;-83
2023/12/20 08:02:56;;;;;;;19.63;3.08;;;7.40;99.90;;;;;;5072139;28;20124;-82
2023/12/20 08:05:22;;;;;;;19.70;4.20;;;7.80;99.90;;;;;;5053835;28;20041;-82
2023/12/20 08:07:48;;;;;;;22.02;4.13;;;7.40;99.90;;;;;;5063278;28;20056;-84
2023/12/20 08:10:14;;;;;;;24.67;4.82;;;7.40;99.90;;;;;;5058240;28;20109;-83
2023/12/20 08:12:39;;;;;;;21.73;3.83;;;7.40;99.90;;;;;;5056060;28;20145;-83
2023/12/20 08:15:06;;;;;;;22.27;3.42;;;7.40;99.90;;;;;;5060027;28;20048;-83
2023/12/20 08:17:31;;;;;;;26.92;4.57;;;7.40;99.90;;;;;;5068662;28;20541;-82
2023/12/20 08:19:57;;;;;;;28.45;5.85;;;7.40;99.90;;;;;;5077413;28;20045;-82
2023/12/20 08:22:23;;;;;;;21.00;3.65;;;7.40;99.90;;;;;;5053973;28;20045;-83
2023/12/20 08:24:49;;;;;;;26.92;3.92;;;7.50;99.90;;;;;;5067065;28;20056;-82
2023/12/20 08:27:15;;;;;;;29.95;4.45;;;7.50;99.90;;;;;;5062120;28;20044;-84
2023/12/20 08:29:40;;;;;;;21.25;4.22;;;7.40;99.90;;;;;;5046835;28;20036;-87
2023/12/20 08:32:06;;;;;;;22.42;4.57;;;7.40;99.90;;;;;;5056560;28;20049;-86
2023/12/20 08:34:32;;;;;;;23.80;4.80;;;7.50;99.90;;;;;;5058491;28;20124;-82
2023/12/20 08:36:57;;;;;;;20.85;4.13;;;7.90;99.90;;;;;;5057979;28;20049;-84
2023/12/20 08:39:23;;;;;;;15.43;2.83;;;7.50;99.90;;;;;;5057252;28;20063;-84
2023/12/20 08:41:48;;;;;;;16.88;4.13;;;7.40;99.90;;;;;;5066529;28;20044;-84
2023/12/20 08:44:15;;;;;;;16.40;2.67;;;7.40;99.90;;;;;;5074646;28;20098;-84
2023/12/20 08:46:41;;;;;;;25.33;3.40;;;7.50;99.90;;;;;;5066329;28;20524;-83
2023/12/20 08:49:07;;;;;;;12.90;2.15;;;7.40;99.90;;;;;;5057421;28;20055;-82
2023/12/20 08:51:33;;;;;;;16.75;2.53;;;7.40;99.90;;;;;;5046086;28;20369;-83
2023/12/20 08:53:59;;;;;;;11.50;2.05;;;7.50;99.90;;;;;;5058897;28;20059;-82
2023/12/20 08:56:24;;;;;;;11.20;2.03;;;7.70;99.90;;;;;;5059443;28;20037;-84
2023/12/20 08:58:51;;;;;;;18.30;3.10;;;8.20;99.90;;;;;;5060018;28;20068;-83
2023/12/20 09:01:17;;;;;;;17.98;3.00;;;7.50;99.90;;;;;;5057563;28;20068;-83
2023/12/20 09:03:43;;;;;;;16.63;2.88;;;7.40;99.90;;;;;;5052329;28;20084;-83
2023/12/20 09:06:09;;;;;;;16.08;2.33;;;7.40;99.90;;;;;;5066299;28;20045;-81
2023/12/20 09:08:34;;;;;;;19.85;3.15;;;7.40;99.90;;;;;;5047306;28;20043;-88
2023/12/20 09:11:00;;;;;;;14.77;2.90;;;7.40;99.90;;;;;;5062762;28;20132;-88
2023/12/20 09:13:29;;;;;;;16.55;2.97;;;7.40;99.90;;;;;;5066725;28;20052;-89
2023/12/20 09:15:55;;;;;;;18.10;2.03;;;7.50;99.90;;;;;;5063286;28;20132;-89
2023/12/20 09:18:21;;;;;;;9.40;1.88;;;7.60;99.90;;;;;;5062517;28;20136;-92
2023/12/20 09:20:47;;;;;;;7.90;1.80;;;7.20;99.90;;;;;;5060461;28;20083;-90
2023/12/20 09:23:12;;;;;;;12.30;1.70;;;7.00;99.90;;;;;;5077723;28;20048;-91
2023/12/20 09:25:38;;;;;;;12.20;1.98;;;6.80;99.90;;;;;;5084722;28;20048;-89
2023/12/20 09:28:04;;;;;;;17.05;2.10;;;6.70;99.90;;;;;;5071982;28;20041;-89
2023/12/20 09:30:31;;;;;;;7.30;1.20;;;6.60;99.90;;;;;;5080618;28;20438;-90
2023/12/20 09:32:57;;;;;;;7.82;1.02;;;6.60;99.90;;;;;;5081187;28;20059;-90
2023/12/20 09:35:23;;;;;;;6.95;1.23;;;6.90;99.90;;;;;;5070538;28;20040;-82
2023/12/20 09:37:49;;;;;;;7.97;1.08;;;6.50;99.90;;;;;;5070437;28;20103;-82
2023/12/20 09:40:18;;;;;;;8.25;0.93;;;6.50;99.90;;;;;;5057551;28;20037;-85
2023/12/20 09:42:57;;;;;;;6.90;1.27;;;6.40;99.90;;;;;;5055954;28;20132;-85
2023/12/20 09:45:23;;;;;;;11.05;0.98;;;6.40;99.90;;;;;;5055807;28;20535;-83
2023/12/20 09:47:53;;;;;;;3.72;0.77;;;6.40;99.90;;;;;;5054894;28;20048;-84
2023/12/20 09:50:22;;;;;;;4.22;0.90;;;7.40;99.90;;;;;;5064557;28;20492;-84
2023/12/20 09:52:52;;;;;;;7.88;1.27;;;6.30;99.90;;;;;;5076034;28;20055;-86
2023/12/20 09:55:19;;;;;;;7.15;0.68;;;6.40;99.90;;;;;;5071301;28;20504;-86
2023/12/20 09:57:47;;;;;;;7.40;0.73;;;6.40;99.90;;;;;;5069221;28;20048;-86
2023/12/20 10:00:14;;;;;;;6.88;0.68;;;6.40;99.90;;;;;;5075454;28;20124;-85
2023/12/20 10:02:49;;;;;;;6.20;0.85;;;6.40;99.90;;;;;;5066713;28;20052;-84
2023/12/20 10:05:20;;;;;;;9.20;0.88;;;6.40;99.90;;;;;;5056855;28;20048;-85
2023/12/20 10:07:46;;;;;;;7.80;0.70;;;6.40;99.90;;;;;;5071706;28;20523;-85
2023/12/20 10:10:13;;;;;;;6.70;0.90;;;6.70;99.90;;;;;;5062688;28;20041;-86
2023/12/20 10:12:39;;;;;;;13.80;1.35;;;6.50;99.90;;;;;;5072860;28;20043;-84
2023/12/20 10:15:06;;;;;;;12.52;1.27;;;6.50;99.90;;;;;;5061380;28;20045;-84
2023/12/20 10:17:31;;;;;;;7.00;0.98;;;6.50;99.90;;;;;;5073787;28;20045;-85
2023/12/20 10:19:58;;;;;;;4.65;0.60;;;6.50;99.90;;;;;;5062328;28;20123;-86
2023/12/20 10:22:24;;;;;;;10.10;1.30;;;6.50;99.90;;;;;;5065038;28;20049;-85
2023/12/20 10:24:50;;;;;;;9.82;1.48;;;6.50;99.90;;;;;;5056625;28;20056;-84
2023/12/20 10:27:19;;;;;;;11.02;1.48;;;6.90;99.90;;;;;;5070563;28;20036;-86
2023/12/20 10:29:45;;;;;;;7.93;1.10;;;7.10;99.90;;;;;;5059109;28;20045;-86
2023/12/20 10:32:26;;;;;;;8.73;1.73;;;6.50;99.90;;;;;;5055108;28;20563;-86
2023/12/20 10:34:53;;;;;;;11.70;1.10;;;6.50;99.90;;;;;;5072147;28;20044;-87
2023/12/20 10:37:20;;;;;;;14.95;1.25;;;6.50;99.90;;;;;;5055459;28;20045;-85
2023/12/20 10:39:56;;;;;;;11.90;1.95;;;6.50;99.90;;;;;;5062000;28;20048;-86
2023/12/20 10:42:31;;;;;;;6.07;1.00;;;6.50;99.90;;;;;;5058643;28;20503;-86
2023/12/20 10:44:59;;;;;;;5.85;1.00;;;6.50;99.90;;;;;;5058544;28;20059;-87
2023/12/20 10:47:26;;;;;;;8.30;1.13;;;6.50;99.90;;;;;;5057871;28;20044;-85
2023/12/20 10:49:53;;;;;;;12.57;1.45;;;6.50;99.90;;;;;;5073389;28;20056;-85
2023/12/20 10:52:20;;;;;;;4.43;1.08;;;6.60;99.90;;;;;;5072718;28;20047;-84
2023/12/20 10:54:46;;;;;;;13.02;1.30;;;6.60;99.90;;;;;;5058990;28;20045;-85
2023/12/20 10:57:12;;;;;;;11.27;2.65;;;6.60;99.90;;;;;;5053933;28;20040;-85
2023/12/20 10:59:39;;;;;;;10.88;1.52;;;6.60;99.90;;;;;;5059360;28;20075;-86
2023/12/20 11:02:05;;;;;;;9.63;1.30;;;7.00;99.90;;;;;;5073911;28;20090;-83
2023/12/20 11:04:40;;;;;;;6.80;1.05;;;6.70;99.90;;;;;;5073274;28;20044;-86
2023/12/20 11:07:35;;;;;;;7.88;1.08;;;6.70;99.90;;;;;;5073345;28;20088;-84
2023/12/20 11:10:18;;;;;;;10.53;1.27;;;6.60;99.90;;;;;;5072047;28;20060;-85
2023/12/20 11:12:51;;;;;;;13.05;2.00;;;6.70;99.90;;;;;;5063033;28;20036;-85
2023/12/20 11:15:18;;;;;;;13.55;1.30;;;6.70;99.90;;;;;;5055569;28;20041;-90
2023/12/20 11:17:46;;;;;;;14.35;1.23;;;6.70;99.90;;;;;;5072569;28;20044;-83
2023/12/20 11:20:13;;;;;;;16.20;1.92;;;6.70;99.90;;;;;;5053879;28;20079;-89
2023/12/20 11:22:51;;;;;;;11.35;1.58;;;6.70;99.90;;;;;;5065493;28;20165;-84
2023/12/20 11:25:17;;;;;;;10.70;1.70;;;6.80;99.90;;;;;;5068061;28;20496;-87
2023/12/20 11:27:43;;;;;;;11.73;1.65;;;6.80;99.90;;;;;;5064320;28;20613;-86
2023/12/20 11:30:09;;;;;;;11.10;1.60;;;6.90;99.90;;;;;;5064455;28;20360;-82
2023/12/20 11:32:36;;;;;;;10.48;1.17;;;6.80;99.90;;;;;;5075815;28;20052;-82
2023/12/20 11:35:18;;;;;;;10.27;2.25;;;7.00;99.90;;;;;;5075269;28;20056;-87
2023/12/20 11:37:47;;;;;;;11.07;2.17;;;6.90;99.90;;;;;;5069597;28;20048;-90
2023/12/20 11:40:16;;;;;;;12.30;1.75;;;7.00;99.90;;;;;;5074439;28;20064;-88
2023/12/20 11:42:48;;;;;;;16.25;2.25;;;6.90;99.90;;;;;;5074607;28;20490;-89
2023/12/20 11:45:15;;;;;;;10.88;2.33;;;6.90;99.90;;;;;;5059009;28;20036;-90
2023/12/20 11:47:43;;;;;;;14.50;3.17;;;6.90;99.90;;;;;;5057715;28;20037;-87
2023/12/20 11:50:09;;;;;;;18.63;2.88;;;7.00;99.90;;;;;;5061217;28;20040;-86
2023/12/20 11:52:35;;;;;;;12.13;1.92;;;7.00;99.90;;;;;;5068837;28;20045;-88
2023/12/20 11:55:01;;;;;;;8.75;1.67;;;7.10;99.90;;;;;;5054620;28;20041;-84
2023/12/20 11:57:26;;;;;;;11.32;1.60;;;7.20;99.90;;;;;;5053893;28;20052;-85
2023/12/20 11:59:52;;;;;;;11.63;1.42;;;7.30;99.90;;;;;;5074103;28;20044;-85
2023/12/20 12:02:18;;;;;;;16.65;1.85;;;7.50;99.90;;;;;;5071086;28;20040;-87
2023/12/20 12:04:43;;;;;;;13.95;1.50;;;7.50;99.90;;;;;;5075262;28;20045;-88
2023/12/20 12:07:09;;;;;;;9.00;1.10;;;7.50;99.90;;;;;;5057094;28;20052;-87
2023/12/20 12:09:36;;;;;;;10.85;1.58;;;7.70;99.90;;;;;;5058678;28;20553;-88
2023/12/20 12:12:01;;;;;;;9.70;1.55;;;7.50;99.90;;;;;;5075616;28;20044;-88
2023/12/20 12:14:27;;;;;;;10.75;1.88;;;7.50;99.90;;;;;;5055559;28;20520;-83
2023/12/20 12:16:53;;;;;;;15.73;2.33;;;7.70;99.90;;;;;;5054436;28;20484;-88
2023/12/20 12:19:23;;;;;;;15.93;2.05;;;7.50;99.90;;;;;;5063637;28;20054;-83
2023/12/20 12:21:50;;;;;;;8.57;1.30;;;7.40;99.90;;;;;;5071696;28;20048;-84
2023/12/20 12:24:23;;;;;;;12.65;2.08;;;7.50;99.90;;;;;;5058464;28;20044;-89
2023/12/20 12:26:51;;;;;;;12.95;1.90;;;7.40;99.90;;;;;;5074163;28;20048;-83
2023/12/20 12:29:17;;;;;;;9.43;1.63;;;7.40;99.90;;;;;;5057211;28;20125;-91
2023/12/20 12:31:43;;;;;;;14.38;1.33;;;7.40;99.90;;;;;;5076333;28;20076;-88
2023/12/20 12:34:14;;;;;;;13.98;1.58;;;7.40;99.90;;;;;;5078255;28;20480;-87
2023/12/20 12:36:40;;;;;;;12.95;1.83;;;7.40;99.90;;;;;;5075016;28;20040;-88
2023/12/20 12:39:05;;;;;;;14.27;1.90;;;7.40;99.90;;;;;;5060903;28;20179;-91
2023/12/20 12:41:33;;;;;;;13.25;1.92;;;7.30;99.90;;;;;;5061027;28;20379;-84
2023/12/20 12:43:59;;;;;;;14.35;1.80;;;7.30;99.90;;;;;;5074475;28;20076;-87